Flight Track Log - Related Links

Times and Time Zones

All times are in EDT time to prevent confusion due to time zone crossing. See the UCA4838 flight status page for this flight to view local times or setup timezone preferences in your user account.

Time Position Orientation Groundspeed Altitude Reporting Facility
EDT Latitude Longitude Course Direction KTS MPH feet Rate Location/Type
Sun 05:00:03 PM 40.6500 -74.1833 232° Southwest 159 183 1,600  Level New York TRACON
Sun 05:01:03 PM 40.6000 -74.2000 194° South 174 200 2,600 1,100 Climbing New York TRACON
Sun 05:02:03 PM 40.5667 -74.2500 229° Southwest 183 211 3,800 1,160 Climbing New York TRACON
Sun 05:03:02 PM 40.5167 -74.2667 194° South 204 235 4,900 1,100 Climbing New York TRACON
Sun 05:04:03 PM 40.4667 -74.2333 153° Southeast 215 247 6,000 626 Climbing New York TRACON
Sun 05:04:57 PM 40.4000 -74.2000 159° South 239 275 6,100 -66 Climbing New York TRACON
Sun 05:05:00 PM 40.4126 -74.6452 232° Southwest  Level Estimated
Sun 05:06:00 PM 40.3311 -74.1827 169° South  Level FlightAware Approximate
Sun 05:13:00 PM 39.9127 -74.3295 215° Southwest  Level FlightAware Approximate
Sun 05:14:00 PM 39.8579 -74.3793 215° Southwest  Level FlightAware Approximate
Sun 05:15:00 PM 39.8030 -74.4288 214° Southwest  Level FlightAware Approximate
Sun 05:16:00 PM 39.7478 -74.4779 214° Southwest  Level FlightAware Approximate
Sun 05:17:00 PM 39.6927 -74.5269 214° Southwest  Level FlightAware Approximate
Sun 05:18:00 PM 39.6387 -74.5780 218° Southwest  Level FlightAware Approximate
Sun 05:19:00 PM 39.5858 -74.6309 218° Southwest  Level FlightAware Approximate
Sun 05:20:00 PM 39.5328 -74.6838 218° Southwest  Level FlightAware Approximate
Sun 05:21:00 PM 39.4795 -74.7359 216° Southwest  Level FlightAware Approximate
Sun 05:22:00 PM 39.4253 -74.7866 216° Southwest  Level FlightAware Approximate
Sun 05:23:00 PM 39.3711 -74.8372 216° Southwest  Level FlightAware Approximate
Sun 05:24:00 PM 39.3169 -74.8878 216° Southwest  Level FlightAware Approximate
Sun 05:25:00 PM 39.2627 -74.9382 216° Southwest  Level FlightAware Approximate
Sun 05:26:00 PM 39.2027 -74.9755 203° Southwest  Level FlightAware Approximate
Sun 05:27:00 PM 39.1411 -75.0088 203° Southwest  Level FlightAware Approximate
Sun 05:28:00 PM 39.0794 -75.0419 203° Southwest  Level FlightAware Approximate
Sun 05:29:00 PM 39.0200 -75.0800 218° Southwest  Level FlightAware Approximate
Sun 05:30:00 PM 38.9589 -75.1145 203° Southwest  Level FlightAware Approximate
Sun 05:31:00 PM 38.8972 -75.1477 203° Southwest  Level FlightAware Approximate
Sun 05:32:00 PM 38.8356 -75.1809 203° Southwest  Level FlightAware Approximate
Sun 05:33:00 PM 38.7980 -75.2362 266° West  Level FlightAware Approximate
Sun 05:34:00 PM 38.7933 -75.3217 266° West  Level FlightAware Approximate
Sun 05:34:28 PM 39.1833 -75.7000 265° West 240 276 4,000  Level Potomac TRACON
Sun 05:35:00 PM 38.7886 -75.4072 266° West  Level FlightAware Approximate
Sun 05:35:29 PM 39.1833 -75.8000 270° West 240 276 3,900  Level Potomac TRACON
Sun 05:36:00 PM 38.7837 -75.4928 266° West  Level FlightAware Approximate
Sun 05:36:23 PM 39.1833 -75.8667 270° West 242 278 4,000  Level Potomac TRACON
Sun 05:37:00 PM 38.7774 -75.5781 264° West  Level FlightAware Approximate
Sun 05:37:29 PM 39.1833 -75.9667 270° West 242 278 4,000  Level Potomac TRACON
Sun 05:38:00 PM 38.7708 -75.6634 264° West  Level FlightAware Approximate
Sun 05:38:29 PM 39.1167 -76.0000 201° Southwest 257 296 4,000  Level Potomac TRACON
Sun 05:39:00 PM 38.7644 -75.7487 265° West  Level FlightAware Approximate
Sun 05:39:29 PM 39.0500 -76.0000 180° South 254 292 4,000  Level Potomac TRACON
Sun 05:40:29 PM 39.0167 -76.0833 243° Southwest 245 282 4,000  Level Potomac TRACON
Sun 05:41:29 PM 39.0167 -76.1667 270° West 245 282 4,000 -158 Level Potomac TRACON
Sun 05:42:23 PM 39.0167 -76.2500 270° West 246 283 3,700 -500 Descending Potomac TRACON
Sun 05:43:29 PM 39.0000 -76.3333 256° West 234 269 3,000 -333 Descending Potomac TRACON
Sun 05:44:29 PM 39.0167 -76.4167 284° West 225 259 3,000  Level Potomac TRACON
Sun 05:45:23 PM 39.0333 -76.4833 288° West 221 254 3,000 -522 Level Potomac TRACON
Sun 05:46:24 PM 39.0500 -76.5500 288° West 180 207 2,000 -550 Descending Potomac TRACON
Sun 05:47:23 PM 39.0833 -76.6000 311° West 190 219 1,900 -555 Descending Potomac TRACON
Sun 05:48:23 PM 39.1333 -76.6333 333° Northwest 177 204 900 -1,000 Descending Potomac TRACON
Sun 05:50:00 PM 39.1667 -76.6667 314° West  Level FlightAware Approximate
Sun 05:57:00 PM 39.1754 -76.6683 314° West  Level Estimated

Login

Don't have an account? Register now (free) for customized features, flight alerts, and more!